Time;durP1;ratioP1;P1;durP2;ratioP2;P2;SDS_P1;SDS_P2;PMS_P1;PMS_P2;Temp;Humidity;BMP_temperature;BMP_pressure;BME280_temperature;BME280_humidity;BME280_pressure;Samples;Min_cycle;Max_cycle;Signal;HPM_P1;HPM_P2
2022/03/02 00:01:25;;;;;;;80.57;74.15;;;;;;;-0.59;100.00;101883.66;5040199;28;20057;-80
2022/03/02 00:03:51;;;;;;;88.50;81.38;;;;;;;-0.58;100.00;101875.72;5040234;28;20045;-80
2022/03/02 00:06:18;;;;;;;110.07;102.10;;;;;;;-0.61;100.00;101877.69;5040617;28;20049;-78
2022/03/02 00:08:45;;;;;;;82.30;75.70;;;;;;;-0.59;100.00;101874.06;5040202;28;20114;-80
2022/03/02 00:11:12;;;;;;;71.28;65.53;;;;;;;-0.53;100.00;101870.19;5040299;28;20057;-79
2022/03/02 00:13:40;;;;;;;83.03;76.60;;;;;;;-0.42;100.00;101864.22;5040521;28;20049;-79
2022/03/02 00:16:08;;;;;;;87.97;81.53;;;;;;;-0.63;100.00;101870.00;5040087;28;20049;-79
2022/03/02 00:18:35;;;;;;;90.13;83.50;;;;;;;-0.74;100.00;101860.28;5040047;28;20078;-80
2022/03/02 00:21:02;;;;;;;89.63;83.03;;;;;;;-0.50;100.00;101862.16;5040365;28;20123;-79
2022/03/02 00:23:29;;;;;;;89.40;82.93;;;;;;;-0.70;100.00;101856.53;5040325;28;20402;-80
2022/03/02 00:25:56;;;;;;;90.88;84.03;;;;;;;-0.47;100.00;101851.50;5040043;28;20092;-79
2022/03/02 00:28:23;;;;;;;85.10;78.40;;;;;;;-0.44;100.00;101851.28;5040192;28;20057;-79
2022/03/02 00:30:51;;;;;;;90.97;83.97;;;;;;;-0.49;100.00;101845.53;5039803;28;20049;-78
2022/03/02 00:33:18;;;;;;;83.40;76.90;;;;;;;-0.47;100.00;101844.50;5039971;28;20045;-79
2022/03/02 00:35:45;;;;;;;97.65;90.07;;;;;;;-0.57;100.00;101843.47;5040367;28;20053;-80
2022/03/02 00:38:12;;;;;;;82.45;75.45;;;;;;;-0.44;100.00;101840.00;5040154;28;20099;-78
2022/03/02 00:40:39;;;;;;;81.63;74.70;;;;;;;-0.46;100.00;101840.09;5040059;28;20061;-80
2022/03/02 00:43:07;;;;;;;93.45;85.93;;;;;;;-0.54;100.00;101830.22;5040018;28;20041;-79
2022/03/02 00:45:34;;;;;;;91.00;83.50;;;;;;;-0.54;100.00;101830.22;5039918;28;20061;-80
2022/03/02 00:48:04;;;;;;;87.60;80.38;;;;;;;-0.42;100.00;101830.28;5040337;28;20057;-79
2022/03/02 00:50:32;;;;;;;93.78;86.40;;;;;;;-0.32;100.00;101824.31;5039814;28;20053;-81
2022/03/02 00:52:59;;;;;;;96.65;89.10;;;;;;;-0.51;100.00;101826.56;5040366;28;20525;-80
2022/03/02 00:55:27;;;;;;;83.95;77.18;;;;;;;-0.35;100.00;101829.75;5040081;28;20053;-79
2022/03/02 00:57:53;;;;;;;90.72;83.80;;;;;;;-0.48;100.00;101827.19;5039717;28;20053;-79
2022/03/02 01:00:21;;;;;;;83.80;77.10;;;;;;;-0.41;100.00;101826.75;5039858;28;20049;-82
2022/03/02 01:02:47;;;;;;;97.90;90.50;;;;;;;-0.50;100.00;101818.59;5039382;28;20061;-80
2022/03/02 01:05:16;;;;;;;92.07;84.72;;;;;;;-0.55;100.00;101820.69;5040057;28;20049;-79
2022/03/02 01:07:43;;;;;;;88.88;81.60;;;;;;;-0.44;100.00;101808.69;5040001;28;20057;-80
2022/03/02 01:10:10;;;;;;;87.97;81.25;;;;;;;-0.46;100.00;101814.00;5038876;28;20057;-82
2022/03/02 01:12:39;;;;;;;89.47;82.15;;;;;;;-0.48;100.00;101803.69;5036517;28;20049;-82
2022/03/02 01:15:07;;;;;;;93.10;85.60;;;;;;;-0.36;100.00;101803.78;5036813;28;20061;-79
2022/03/02 01:17:35;;;;;;;101.75;94.25;;;;;;;-0.44;100.00;101803.47;5036266;28;20115;-80
2022/03/02 01:20:01;;;;;;;107.40;99.75;;;;;;;-0.46;100.00;101798.34;5036395;28;20115;-80
2022/03/02 01:22:29;;;;;;;100.55;92.88;;;;;;;-0.51;100.00;101797.84;5036427;28;20115;-82
2022/03/02 01:24:56;;;;;;;84.03;77.25;;;;;;;-0.49;100.00;101794.16;5036616;28;20053;-79
2022/03/02 01:27:23;;;;;;;72.13;66.22;;;;;;;-0.46;100.00;101786.13;5036616;28;20045;-81
2022/03/02 01:29:51;;;;;;;83.45;77.22;;;;;;;-0.37;100.00;101795.09;5036389;28;20049;-79
2022/03/02 01:32:18;;;;;;;89.93;83.22;;;;;;;-0.48;100.00;101781.97;5036239;28;20053;-80
2022/03/02 01:34:46;;;;;;;84.22;77.80;;;;;;;-0.35;100.00;101787.16;5036280;28;20474;-82
2022/03/02 01:37:13;;;;;;;86.13;79.38;;;;;;;-0.34;100.00;101780.97;5036297;28;20111;-80
2022/03/02 01:39:41;;;;;;;93.70;86.45;;;;;;;-0.45;100.00;101781.75;5035980;28;20049;-82
2022/03/02 01:42:08;;;;;;;79.82;73.63;;;;;;;-0.48;100.00;101779.38;5036182;28;20383;-79
2022/03/02 01:44:36;;;;;;;85.68;79.22;;;;;;;-0.43;100.00;101771.19;5035832;28;20053;-82
2022/03/02 01:47:05;;;;;;;99.90;91.80;;;;;;;-0.50;100.00;101776.03;5036415;28;20054;-80
2022/03/02 01:49:32;;;;;;;94.50;86.80;;;;;;;-0.51;100.00;101777.81;5036223;28;20119;-79
2022/03/02 01:51:58;;;;;;;104.75;96.85;;;;;;;-0.39;100.00;101764.81;5036171;28;20049;-79
2022/03/02 01:54:25;;;;;;;102.45;94.85;;;;;;;-0.32;100.00;101763.44;5036063;28;20050;-80
2022/03/02 01:56:54;;;;;;;105.68;97.63;;;;;;;-0.57;100.00;101761.75;5035755;28;20079;-79
2022/03/02 01:59:20;;;;;;;100.07;92.65;;;;;;;-0.53;100.00;101765.78;5035664;28;20103;-82
2022/03/02 02:01:48;;;;;;;87.38;80.43;;;;;;;-0.43;100.00;101756.34;5035475;28;20052;-82
2022/03/02 02:04:15;;;;;;;87.15;80.18;;;;;;;-0.32;100.00;101753.00;5035551;28;20466;-80
2022/03/02 02:06:42;;;;;;;92.03;84.90;;;;;;;-0.35;100.00;101754.03;5035527;28;20470;-80
2022/03/02 02:09:09;;;;;;;87.32;80.30;;;;;;;-0.41;100.00;101751.03;5035296;28;20474;-79
2022/03/02 02:11:36;;;;;;;83.03;76.40;;;;;;;-0.48;100.00;101748.88;5035275;28;20057;-83
2022/03/02 02:14:04;;;;;;;96.97;89.57;;;;;;;-0.36;100.00;101746.34;5035594;28;20486;-80
2022/03/02 02:16:31;;;;;;;88.53;81.05;;;;;;;-0.34;100.00;101747.03;5035786;28;20057;-78
2022/03/02 02:18:58;;;;;;;87.75;80.65;;;;;;;-0.43;100.00;101745.91;5035142;28;20046;-79
2022/03/02 02:21:29;;;;;;;93.47;86.05;;;;;;;-0.36;100.00;101744.56;5035264;28;20087;-80
2022/03/02 02:23:55;;;;;;;99.82;91.28;;;;;;;-0.41;100.00;101743.22;5034355;28;20559;-80
2022/03/02 02:26:22;;;;;;;94.85;87.18;;;;;;;-0.35;100.00;101738.38;5035463;28;20049;-78
2022/03/02 02:28:51;;;;;;;96.50;88.47;;;;;;;-0.38;100.00;101738.59;5035505;28;20049;-81
2022/03/02 02:31:18;;;;;;;94.32;86.60;;;;;;;-0.36;100.00;101735.91;5034967;28;20053;-79
2022/03/02 02:33:45;;;;;;;101.70;93.50;;;;;;;-0.19;100.00;101734.66;5035500;28;20053;-82
2022/03/02 02:36:12;;;;;;;115.18;105.45;;;;;;;-0.16;100.00;101737.06;5035265;28;20127;-79
2022/03/02 02:38:40;;;;;;;104.18;95.30;;;;;;;-0.06;100.00;101738.91;5035139;28;20049;-79
2022/03/02 02:41:07;;;;;;;105.25;96.13;;;;;;;-0.06;100.00;101736.28;5035408;28;20045;-80
2022/03/02 02:43:34;;;;;;;102.13;92.80;;;;;;;-0.25;100.00;101742.00;5034864;28;20080;-79
2022/03/02 02:46:01;;;;;;;110.35;100.57;;;;;;;-0.17;100.00;101732.78;5034845;28;20119;-80
2022/03/02 02:48:28;;;;;;;113.43;103.53;;;;;;;-0.21;100.00;101740.00;5034706;28;20486;-82
2022/03/02 02:50:55;;;;;;;114.95;105.05;;;;;;;-0.19;100.00;101730.28;5034803;28;20491;-79
2022/03/02 02:53:21;;;;;;;111.10;101.05;;;;;;;-0.18;100.00;101731.09;5034676;28;20111;-79
2022/03/02 02:55:50;;;;;;;112.18;101.97;;;;;;;-0.14;100.00;101728.16;5034569;28;20056;-79
2022/03/02 02:58:17;;;;;;;116.65;106.30;;;;;;;-0.05;100.00;101726.66;5034255;28;20053;-78
2022/03/02 03:01:27;;;;;;;128.27;117.28;;;;;;;-0.10;100.00;101719.16;5148632;22;21440;-79
2022/03/02 03:03:54;;;;;;;118.38;107.43;;;;;;;-0.21;100.00;101719.13;4956062;28;20122;-80
2022/03/02 03:06:22;;;;;;;119.97;108.25;;;;;;;-0.16;100.00;101711.78;4956502;29;20055;-81
2022/03/02 03:08:49;;;;;;;121.07;109.93;;;;;;;-0.13;100.00;101713.31;4955357;29;20059;-80
2022/03/02 03:11:19;;;;;;;112.10;101.07;;;;;;;-0.04;100.00;101720.50;4956284;29;20118;-79
2022/03/02 03:13:46;;;;;;;117.93;106.68;;;;;;;-0.09;100.00;101717.38;4957047;29;20090;-82
2022/03/02 03:16:12;;;;;;;136.55;124.38;;;;;;;-0.08;100.00;101717.28;4957258;29;20118;-79
2022/03/02 03:18:39;;;;;;;121.35;109.57;;;;;;;-0.15;100.00;101708.22;4956436;28;20055;-79
2022/03/02 03:21:06;;;;;;;111.72;100.30;;;;;;;-0.16;100.00;101710.94;4956367;29;20059;-79
2022/03/02 03:23:33;;;;;;;131.43;119.22;;;;;;;-0.11;100.00;101709.66;4956160;29;20051;-79
2022/03/02 03:25:59;;;;;;;134.18;121.72;;;;;;;-0.14;100.00;101707.28;4956196;29;20050;-79
2022/03/02 03:28:28;;;;;;;133.82;121.50;;;;;;;-0.06;100.00;101707.56;4955785;29;20062;-80
2022/03/02 03:30:54;;;;;;;111.63;100.13;;;;;;;-0.10;100.00;101706.09;4956417;29;20459;-82
2022/03/02 03:33:21;;;;;;;114.50;102.57;;;;;;;-0.14;100.00;101712.50;4955890;28;20125;-79
2022/03/02 03:35:48;;;;;;;145.88;132.27;;;;;;;0.02;100.00;101703.53;4955885;29;20479;-79
2022/03/02 03:38:15;;;;;;;124.50;112.32;;;;;;;-0.16;100.00;101698.72;4954625;28;20051;-82
2022/03/02 03:40:41;;;;;;;122.05;110.43;;;;;;;-0.08;100.00;101692.94;4956121;28;20448;-80
2022/03/02 03:43:08;;;;;;;135.27;122.35;;;;;;;-0.10;100.00;101690.44;4956074;29;20062;-82
2022/03/02 03:45:36;;;;;;;114.72;103.13;;;;;;;-0.11;100.00;101682.72;4955875;29;20113;-79
2022/03/02 03:48:03;;;;;;;110.32;99.10;;;;;;;-0.10;100.00;101687.00;4955962;29;20059;-78
2022/03/02 03:50:30;;;;;;;105.00;94.45;;;;;;;-0.20;100.00;101688.63;4955755;29;20550;-80
2022/03/02 03:52:57;;;;;;;123.43;111.70;;;;;;;-0.28;100.00;101686.56;4955801;29;20117;-80
2022/03/02 03:55:24;;;;;;;121.60;109.72;;;;;;;-0.25;100.00;101681.94;4955953;29;20059;-79
2022/03/02 03:57:50;;;;;;;116.30;104.85;;;;;;;-0.29;100.00;101674.44;4956186;29;20051;-79
2022/03/02 04:00:20;;;;;;;122.55;110.57;;;;;;;-0.14;100.00;101681.16;4955804;29;20114;-80
2022/03/02 04:02:48;;;;;;;128.25;115.50;;;;;;;-0.24;100.00;101672.34;4979396;28;20197;-80
2022/03/02 04:05:16;;;;;;;121.85;109.28;;;;;;;-0.28;100.00;101682.16;4994304;28;20046;-82
2022/03/02 04:07:44;;;;;;;127.10;114.05;;;;;;;-0.16;100.00;101677.00;4994508;28;20082;-79
2022/03/02 04:10:12;;;;;;;130.10;117.30;;;;;;;-0.22;100.00;101675.66;4994079;28;20046;-79
2022/03/02 04:12:39;;;;;;;127.57;114.75;;;;;;;-0.30;100.00;101668.41;4994301;28;20046;-79
2022/03/02 04:15:08;;;;;;;113.20;101.78;;;;;;;-0.19;100.00;101669.38;4994251;28;20116;-82
2022/03/02 04:17:35;;;;;;;131.18;118.50;;;;;;;-0.09;100.00;101663.38;4994230;28;20112;-79
2022/03/02 04:20:04;;;;;;;132.25;118.60;;;;;;;-0.07;100.00;101663.25;4994373;28;20050;-80
2022/03/02 04:22:30;;;;;;;145.40;131.65;;;;;;;0.23;100.00;101665.34;4994485;28;20458;-81
2022/03/02 04:24:57;;;;;;;129.20;116.22;;;;;;;-0.01;100.00;101666.25;4994171;28;20046;-80
2022/03/02 04:27:24;;;;;;;128.02;115.55;;;;;;;0.07;100.00;101659.63;4994117;28;20479;-80
2022/03/02 04:29:51;;;;;;;133.02;120.10;;;;;;;-0.19;100.00;101653.72;4994405;28;20050;-82
2022/03/02 04:32:18;;;;;;;130.85;118.15;;;;;;;-0.22;100.00;101654.78;4994225;28;20051;-81
2022/03/02 04:34:44;;;;;;;136.70;123.47;;;;;;;-0.07;100.00;101656.25;4994186;28;20117;-82
2022/03/02 04:37:12;;;;;;;142.10;128.23;;;;;;;-0.06;100.00;101649.25;4994324;28;20112;-80
2022/03/02 04:39:40;;;;;;;150.43;135.63;;;;;;;-0.07;100.00;101648.41;4994263;28;20051;-78
2022/03/02 04:42:07;;;;;;;128.98;116.07;;;;;;;-0.09;100.00;101652.94;4994229;28;20061;-79
2022/03/02 04:44:34;;;;;;;144.35;130.15;;;;;;;-0.04;100.00;101648.19;4994819;28;20458;-79
2022/03/02 04:47:00;;;;;;;129.40;116.95;;;;;;;-0.20;100.00;101652.88;4996687;28;20105;-80
2022/03/02 04:49:27;;;;;;;123.60;111.45;;;;;;;-0.16;100.00;101649.09;4997601;28;20112;-79
2022/03/02 04:51:54;;;;;;;118.18;106.53;;;;;;;-0.21;100.00;101653.84;4997606;28;20140;-79
2022/03/02 04:57:08;;;;;;;125.43;113.00;;;;;;;-0.01;100.00;101652.34;4997698;28;20556;-79
2022/03/02 04:59:35;;;;;;;123.60;111.13;;;;;;;-0.17;100.00;101651.84;4997367;28;20042;-79
2022/03/02 05:02:02;;;;;;;119.50;107.07;;;;;;;-0.13;100.00;101653.25;4996059;28;20458;-79
2022/03/02 05:04:29;;;;;;;128.73;116.15;;;;;;;-0.08;100.00;101661.59;4997507;28;20054;-78
2022/03/02 05:06:56;;;;;;;129.85;116.95;;;;;;;-0.08;100.00;101651.97;4997665;28;20054;-79
2022/03/02 05:09:24;;;;;;;124.72;112.63;;;;;;;-0.22;100.00;101657.38;4997852;28;20116;-82
2022/03/02 05:11:51;;;;;;;122.38;110.20;;;;;;;-0.12;100.00;101653.16;4997527;28;20054;-82
2022/03/02 05:14:18;;;;;;;123.85;111.65;;;;;;;-0.16;100.00;101643.88;4997439;28;20046;-79
2022/03/02 05:16:44;;;;;;;122.18;109.55;;;;;;;-0.14;100.00;101649.81;4997054;28;20146;-80
2022/03/02 05:19:11;;;;;;;123.53;111.50;;;;;;;-0.14;100.00;101649.81;4997123;28;20046;-80
2022/03/02 05:21:38;;;;;;;109.60;98.32;;;;;;;-0.10;100.00;101653.84;4997580;28;20058;-80
2022/03/02 05:24:06;;;;;;;109.65;96.63;;;;;;;0.08;100.00;101651.66;4997032;28;20048;-80
2022/03/02 05:26:34;;;;;;;119.90;107.45;;;;;;;-0.02;100.00;101651.53;4996990;28;20116;-81
2022/03/02 05:29:00;;;;;;;100.72;89.65;;;;;;;0.02;100.00;101657.34;4996977;28;20060;-79
2022/03/02 05:31:27;;;;;;;114.45;102.38;;;;;;;-0.03;100.00;101659.47;4996886;28;20050;-80
2022/03/02 05:33:54;;;;;;;118.97;106.07;;;;;;;-0.02;100.00;101658.53;4997350;28;20077;-82
2022/03/02 05:36:21;;;;;;;124.55;101.47;;;;;;;-0.03;100.00;101647.25;4997051;28;20116;-81
2022/03/02 05:38:48;;;;;;;114.45;96.05;;;;;;;-0.13;100.00;101654.09;4996623;28;20050;-79
2022/03/02 05:41:14;;;;;;;113.65;101.10;;;;;;;-0.14;100.00;101651.59;4996491;28;20047;-79
2022/03/02 05:43:43;;;;;;;112.40;98.55;;;;;;;-0.12;100.00;101639.25;4996600;28;20072;-83
2022/03/02 05:46:09;;;;;;;123.28;110.07;;;;;;;0.09;100.00;101648.13;4996545;28;20050;-79
2022/03/02 05:48:37;;;;;;;138.20;120.57;;;;;;;0.09;100.00;101649.88;4996456;28;20228;-81
2022/03/02 05:51:03;;;;;;;125.30;111.50;;;;;;;0.06;100.00;101647.50;4996871;28;20050;-82
2022/03/02 05:53:30;;;;;;;126.47;113.00;;;;;;;-0.16;100.00;101648.25;4996392;28;20561;-79
2022/03/02 05:55:57;;;;;;;127.28;114.20;;;;;;;0.05;100.00;101645.84;4996957;28;20165;-79
2022/03/02 05:58:25;;;;;;;131.82;112.80;;;;;;;0.08;100.00;101649.06;4996224;28;20050;-80
2022/03/02 06:00:53;;;;;;;123.70;109.32;;;;;;;0.22;100.00;101653.25;4996769;28;20497;-82
2022/03/02 06:03:20;;;;;;;129.30;113.65;;;;;;;0.05;100.00;101649.28;4994922;28;20533;-79
2022/03/02 06:05:48;;;;;;;131.43;112.57;;;;;;;0.28;100.00;101650.19;4996834;28;20116;-79
2022/03/02 06:08:15;;;;;;;118.32;104.95;;;;;;;0.02;100.00;101648.69;4996258;28;20050;-78
2022/03/02 06:10:43;;;;;;;135.55;117.55;;;;;;;0.29;100.00;101649.22;4996233;28;20490;-83
2022/03/02 06:13:10;;;;;;;129.05;114.90;;;;;;;0.11;100.00;101650.59;4996406;28;20062;-81
2022/03/02 06:15:38;;;;;;;127.80;113.78;;;;;;;0.29;100.00;101649.22;4996454;28;20058;-82
2022/03/02 06:18:07;;;;;;;138.95;123.75;;;;;;;0.34;100.00;101648.88;4996397;28;20058;-81
2022/03/02 06:20:34;;;;;;;133.00;118.22;;;;;;;0.49;100.00;101645.09;4996295;28;20376;-82
2022/03/02 06:23:02;;;;;;;135.13;120.53;;;;;;;0.36;100.00;101653.03;4996057;28;20459;-82
2022/03/02 06:25:29;;;;;;;138.77;123.93;;;;;;;0.19;100.00;101656.09;4995765;28;20054;-81
2022/03/02 06:27:56;;;;;;;127.90;114.38;;;;;;;0.45;100.00;101654.09;4995911;28;20553;-80
2022/03/02 06:30:23;;;;;;;126.40;112.70;;;;;;;0.26;100.00;101653.84;4995831;28;20117;-80
2022/03/02 06:32:50;;;;;;;120.30;107.18;;;;;;;0.36;100.00;101650.41;4995897;28;20521;-80
2022/03/02 06:35:19;;;;;;;116.28;104.05;;;;;;;0.41;100.00;101655.28;4995901;28;20116;-80
2022/03/02 06:37:47;;;;;;;117.38;100.45;;;;;;;0.17;100.00;101648.34;4996035;28;20104;-80
2022/03/02 06:40:14;;;;;;;153.07;113.80;;;;;;;0.39;100.00;101646.72;4995702;28;20112;-82
2022/03/02 06:42:51;;;;;;;131.95;111.13;;;;;;;0.33;100.00;101644.59;4995698;28;20112;-78
2022/03/02 06:45:24;;;;;;;149.00;123.35;;;;;;;0.28;100.00;101646.75;4995674;28;20042;-80
2022/03/02 06:47:54;;;;;;;136.63;115.03;;;;;;;0.36;100.00;101649.56;4995773;28;20133;-79
2022/03/02 06:50:26;;;;;;;128.50;113.95;;;;;;;0.31;100.00;101644.72;4995378;28;20549;-78
2022/03/02 06:52:55;;;;;;;123.00;109.38;;;;;;;0.47;100.00;101647.00;4995655;28;20387;-81
2022/03/02 06:55:22;;;;;;;123.72;110.30;;;;;;;0.48;100.00;101647.81;4995739;28;20137;-79
2022/03/02 06:57:53;;;;;;;123.43;107.90;;;;;;;0.43;100.00;101649.00;4995201;28;20050;-80
2022/03/02 07:00:20;;;;;;;130.60;111.28;;;;;;;0.61;100.00;101649.38;4995708;28;20105;-79
2022/03/02 07:02:49;;;;;;;136.30;115.55;;;;;;;0.81;100.00;101654.84;4994190;28;20493;-82
2022/03/02 07:05:17;;;;;;;134.02;115.25;;;;;;;0.77;100.00;101656.03;4995784;28;20145;-82
2022/03/02 07:07:47;;;;;;;122.53;106.90;;;;;;;0.57;100.00;101647.94;4995096;28;20109;-79
2022/03/02 07:10:14;;;;;;;135.85;115.57;;;;;;;0.31;100.00;101646.50;4995091;28;20051;-79
2022/03/02 07:12:41;;;;;;;136.63;116.05;;;;;;;0.53;100.00;101646.50;4995289;28;20463;-82
2022/03/02 07:15:09;;;;;;;131.63;116.38;;;;;;;0.41;100.00;101648.28;4995083;28;20050;-80
2022/03/02 07:17:36;;;;;;;133.32;118.97;;;;;;;0.90;100.00;101638.44;4995132;28;20050;-82
2022/03/02 07:20:07;;;;;;;138.38;117.60;;;;;;;1.16;100.00;101646.03;4995170;28;20173;-79
2022/03/02 07:22:35;;;;;;;141.88;126.82;;;;;;;1.37;100.00;101639.88;4995127;28;20475;-79
2022/03/02 07:25:07;;;;;;;147.25;131.57;;;;;;;1.19;100.00;101656.25;4995201;28;20085;-79
2022/03/02 07:27:37;;;;;;;;;;;;;;;0.69;100.00;101647.00;4995282;28;20058;-80
2022/03/02 07:30:05;;;;;;;123.55;110.82;;;;;;;1.10;100.00;101642.94;4995086;28;19980;-79
2022/03/02 07:32:35;;;;;;;132.68;118.78;;;;;;;1.27;100.00;101640.75;4994890;28;20482;-81
2022/03/02 07:35:03;;;;;;;137.32;122.93;;;;;;;1.44;100.00;101642.84;4994976;28;20061;-82
2022/03/02 07:37:30;;;;;;;140.57;126.20;;;;;;;1.57;100.00;101640.06;4994798;28;20046;-79
2022/03/02 07:39:59;;;;;;;134.75;120.43;;;;;;;1.51;100.00;101623.09;4994651;28;20572;-80
2022/03/02 07:42:27;;;;;;;140.35;125.85;;;;;;;1.03;100.00;101633.06;4994978;28;20054;-80
2022/03/02 07:45:00;;;;;;;136.88;123.35;;;;;;;1.42;100.00;101630.81;4994485;28;20479;-79
2022/03/02 07:47:27;;;;;;;132.07;118.60;;;;;;;1.52;100.00;101622.13;4994706;28;20050;-79
2022/03/02 07:49:54;;;;;;;148.93;134.05;;;;;;;1.33;100.00;101635.00;4994791;28;20054;-79
2022/03/02 07:52:26;;;;;;;155.50;140.15;;;;;;;1.72;100.00;101623.09;4994828;28;20054;-80
2022/03/02 07:54:58;;;;;;;158.20;143.48;;;;;;;1.20;100.00;101626.50;4994363;28;20050;-79
2022/03/02 07:57:29;;;;;;;136.98;122.47;;;;;;;1.19;100.00;101624.84;4994933;28;20050;-79
2022/03/02 07:59:59;;;;;;;142.30;127.40;;;;;;;0.86;100.00;101626.56;4994704;28;20108;-82
2022/03/02 08:02:30;;;;;;;148.13;132.52;;;;;;;1.27;100.00;101625.03;4993209;28;20479;-79
2022/03/02 08:04:57;;;;;;;147.90;133.10;;;;;;;1.36;100.00;101629.53;4994519;28;20046;-79
2022/03/02 08:07:24;;;;;;;129.07;116.45;;;;;;;0.85;100.00;101620.50;4994902;28;20116;-80
2022/03/02 08:09:52;;;;;;;137.88;123.88;;;;;;;1.00;100.00;101617.59;4994437;28;20557;-79
2022/03/02 08:12:21;;;;;;;143.88;129.70;;;;;;;0.80;100.00;101606.94;4994603;28;20050;-80
2022/03/02 08:14:50;;;;;;;153.20;138.20;;;;;;;1.19;100.00;101602.13;4994412;28;20553;-79
2022/03/02 08:17:17;;;;;;;146.40;131.90;;;;;;;1.21;100.00;101604.59;4994750;28;20046;-80
2022/03/02 08:19:46;;;;;;;146.40;131.60;;;;;;;1.04;100.00;101604.16;4994975;28;20058;-81
2022/03/02 08:22:15;;;;;;;141.25;127.15;;;;;;;1.47;100.00;101607.72;4998828;28;20061;-80
2022/03/02 08:24:47;;;;;;;135.38;122.22;;;;;;;1.35;100.00;101593.84;4998558;28;20112;-82
2022/03/02 08:27:15;;;;;;;143.60;129.23;;;;;;;1.34;100.00;101595.63;4998338;28;20125;-79
2022/03/02 08:29:44;;;;;;;145.65;131.00;;;;;;;1.30;100.00;101596.00;4998287;28;20058;-81
2022/03/02 08:32:16;;;;;;;136.73;122.30;;;;;;;1.23;100.00;101593.06;4998566;28;20058;-79
2022/03/02 08:34:44;;;;;;;139.30;124.82;;;;;;;1.12;100.00;101598.31;4998270;28;20050;-82
2022/03/02 08:37:11;;;;;;;146.05;131.40;;;;;;;1.59;100.00;101589.22;4998379;28;20149;-82
2022/03/02 08:39:38;;;;;;;139.88;125.82;;;;;;;1.31;100.00;101590.66;4998547;28;20085;-80
2022/03/02 08:42:06;;;;;;;142.63;128.68;;;;;;;1.18;100.00;101597.84;4998372;28;20050;-83
2022/03/02 08:44:33;;;;;;;143.63;129.40;;;;;;;1.23;100.00;101581.75;4998131;28;20125;-79
2022/03/02 08:47:00;;;;;;;136.05;122.30;;;;;;;1.48;100.00;101593.69;4998153;28;20054;-83
2022/03/02 08:49:28;;;;;;;141.38;127.03;;;;;;;1.59;100.00;101581.38;4997772;28;20104;-82
2022/03/02 08:51:56;;;;;;;137.52;124.43;;;;;;;1.69;100.00;101593.69;4997857;28;20105;-80
2022/03/02 08:54:24;;;;;;;124.72;112.15;;;;;;;1.56;100.00;101594.72;4998199;28;20042;-80
2022/03/02 08:56:53;;;;;;;132.38;118.97;;;;;;;1.68;100.00;101592.06;4997559;28;20561;-80
2022/03/02 08:59:20;;;;;;;136.93;123.45;;;;;;;1.31;100.00;101588.03;4998107;28;20441;-79
2022/03/02 09:01:52;;;;;;;148.30;134.15;;;;;;;1.44;100.00;101593.09;4997360;28;20050;-82
2022/03/02 09:04:19;;;;;;;151.17;136.47;;;;;;;1.39;100.00;101590.00;4997354;28;20124;-78
2022/03/02 09:06:48;;;;;;;124.78;112.00;;;;;;;1.26;100.00;101591.97;4997160;28;20376;-79
2022/03/02 09:09:16;;;;;;;132.50;118.65;;;;;;;1.76;100.00;101597.50;4997702;28;20113;-80
2022/03/02 09:11:43;;;;;;;127.95;115.03;;;;;;;1.37;100.00;101589.31;4997936;28;20116;-79
2022/03/02 09:14:10;;;;;;;127.78;114.72;;;;;;;1.60;100.00;101587.44;4997809;28;20120;-82
2022/03/02 09:16:39;;;;;;;140.98;127.25;;;;;;;1.68;100.00;101586.81;4997668;28;20047;-79
2022/03/02 09:19:07;;;;;;;129.43;116.75;;;;;;;1.76;100.00;101577.38;4997521;28;20400;-80
2022/03/02 09:21:34;;;;;;;133.88;120.20;;;;;;;1.63;100.00;101573.25;4997531;28;20046;-82
2022/03/02 09:24:02;;;;;;;139.68;126.32;;;;;;;1.46;100.00;101572.88;4997266;28;20112;-79
2022/03/02 09:26:29;;;;;;;140.20;125.57;;;;;;;1.48;100.00;101567.50;4996971;28;20458;-79
2022/03/02 09:28:55;;;;;;;127.20;113.80;;;;;;;1.65;100.00;101564.31;4997752;28;20042;-82
2022/03/02 09:31:23;;;;;;;150.25;135.48;;;;;;;1.49;100.00;101574.41;4996507;28;20120;-80
2022/03/02 09:33:56;;;;;;;143.52;129.02;;;;;;;1.57;100.00;101570.22;4997354;28;20383;-80
2022/03/02 09:36:25;;;;;;;137.18;123.32;;;;;;;1.60;100.00;101564.72;4997648;28;20058;-80
2022/03/02 09:38:54;;;;;;;142.23;127.65;;;;;;;1.83;100.00;101554.09;4997343;28;20047;-81
2022/03/02 09:41:29;;;;;;;149.77;134.82;;;;;;;1.81;100.00;101558.63;4996963;28;20455;-79
2022/03/02 09:43:57;;;;;;;137.43;123.45;;;;;;;2.15;100.00;101559.25;4996922;28;20598;-81
2022/03/02 09:46:34;;;;;;;111.65;100.22;;;;;;;1.98;100.00;101555.44;4997328;28;20137;-82
2022/03/02 09:49:05;;;;;;;127.60;115.18;;;;;;;2.17;100.00;101553.88;4996831;28;20129;-79
2022/03/02 09:51:34;;;;;;;126.30;113.68;;;;;;;2.23;100.00;101550.72;4996763;28;20106;-82
2022/03/02 09:54:04;;;;;;;128.20;116.40;;;;;;;1.96;100.00;101546.88;4997009;28;20458;-82
2022/03/02 09:56:35;;;;;;;128.95;116.53;;;;;;;2.21;100.00;101545.63;4996837;28;20054;-80
2022/03/02 09:59:05;;;;;;;137.15;123.63;;;;;;;2.47;100.00;101537.31;4996709;28;20117;-80
2022/03/02 10:01:34;;;;;;;125.80;113.35;;;;;;;2.23;100.00;101533.22;4996867;28;20120;-79
2022/03/02 10:04:21;;;;;;;131.43;117.57;;;;;;;2.16;100.00;101532.09;4995371;28;20058;-80
2022/03/02 10:06:50;;;;;;;148.63;134.55;;;;;;;2.46;100.00;101522.53;4996470;28;20061;-79
2022/03/02 10:09:21;;;;;;;148.10;134.50;;;;;;;3.51;100.00;101528.06;4997157;28;20132;-79
2022/03/02 10:11:50;;;;;;;137.95;125.68;;;;;;;3.69;100.00;101517.63;4996675;28;20478;-81
2022/03/02 10:14:19;;;;;;;131.57;119.63;;;;;;;4.16;100.00;101515.03;4997011;28;20105;-79
2022/03/02 10:16:46;;;;;;;121.85;111.68;;;;;;;3.20;100.00;101508.97;4997322;28;20054;-79
2022/03/02 10:19:23;;;;;;;123.97;113.00;;;;;;;3.44;100.00;101505.91;4996553;28;20054;-79
2022/03/02 10:22:04;;;;;;;118.97;107.35;;;;;;;3.32;100.00;101501.78;4996719;28;20061;-81
2022/03/02 10:24:33;;;;;;;113.60;102.20;;;;;;;3.50;100.00;101500.09;4996577;28;20065;-80
2022/03/02 10:27:06;;;;;;;128.02;116.25;;;;;;;3.54;100.00;101490.13;4996792;28;20133;-80
2022/03/02 10:29:46;;;;;;;117.57;106.63;;;;;;;3.90;100.00;101491.16;4996257;28;20054;-79
2022/03/02 10:32:17;;;;;;;113.80;104.15;;;;;;;2.82;100.00;101476.50;4996345;28;20481;-79
2022/03/02 10:34:49;;;;;;;107.60;96.43;;;;;;;3.61;100.00;101478.94;4996514;28;20471;-82
2022/03/02 10:37:31;;;;;;;110.20;99.88;;;;;;;2.97;100.00;101467.25;4996865;28;20129;-80
2022/03/02 10:40:07;;;;;;;102.15;92.07;;;;;;;3.17;100.00;101473.31;4996469;28;20454;-78
2022/03/02 10:42:37;;;;;;;103.10;93.10;;;;;;;3.01;100.00;101465.19;4995543;28;20046;-78
2022/03/02 10:45:11;;;;;;;100.38;91.10;;;;;;;3.41;100.00;101464.19;4995849;28;20058;-78
2022/03/02 10:47:43;;;;;;;100.72;91.57;;;;;;;3.56;100.00;101462.75;4995890;28;20050;-80
2022/03/02 10:50:10;;;;;;;99.57;90.28;;;;;;;3.65;100.00;101446.16;4996290;28;20112;-80
2022/03/02 10:52:39;;;;;;;96.72;88.03;;;;;;;4.09;100.00;101446.41;4996162;28;20050;-79
2022/03/02 10:55:09;;;;;;;94.88;86.32;;;;;;;3.79;100.00;101444.06;4995902;28;20104;-81
2022/03/02 10:57:38;;;;;;;99.50;90.10;;;;;;;3.65;100.00;101443.53;4996144;28;20124;-82
2022/03/02 11:00:11;;;;;;;109.32;99.35;;;;;;;3.35;100.00;101428.81;4995811;28;20486;-78
2022/03/02 11:02:41;;;;;;;97.25;88.00;;;;;;;3.66;100.00;101425.97;4994505;28;20518;-79